Time;durP1;ratioP1;P1;durP2;ratioP2;P2;SDS_P1;SDS_P2;PMS_P1;PMS_P2;Temp;Humidity;BMP_temperature;BMP_pressure;BME280_temperature;BME280_humidity;BME280_pressure;Samples;Min_cycle;Max_cycle;Signal;HPM_P1;HPM_P2
2021/05/22 00:00:38;;;;;;;4.95;2.60;;;;;;;;;;5054453;28;20048;-75
2021/05/22 00:03:04;;;;;;;4.50;2.42;;;;;;;;;;5053922;28;20088;-74
2021/05/22 00:05:31;;;;;;;4.38;2.50;;;;;;;;;;5054356;28;20018;-75
2021/05/22 00:07:57;;;;;;;3.50;2.40;;;;;;;;;;5054517;28;20025;-75
2021/05/22 00:10:23;;;;;;;4.10;1.90;;;;;;;;;;5054102;28;20017;-75
2021/05/22 00:12:49;;;;;;;3.55;2.10;;;;;;;;;;5054597;28;20031;-74
2021/05/22 00:15:17;;;;;;;3.90;2.33;;;;;;;;;;5052925;28;20025;-75
2021/05/22 00:17:43;;;;;;;4.35;2.25;;;;;;;;;;5052472;28;20104;-75
2021/05/22 00:20:10;;;;;;;4.85;2.50;;;;;;;;;;5054134;28;20097;-74
2021/05/22 00:22:36;;;;;;;5.40;2.55;;;;;;;;;;5052946;28;20037;-75
2021/05/22 00:25:04;;;;;;;4.03;2.58;;;;;;;;;;5052755;28;20074;-74
2021/05/22 00:27:30;;;;;;;3.63;2.40;;;;;;;;;;5054119;28;20021;-74
2021/05/22 00:29:56;;;;;;;5.53;2.97;;;;;;;;;;5054124;28;20021;-75
2021/05/22 00:32:22;;;;;;;5.50;2.97;;;;;;;;;;5052156;28;20049;-75
2021/05/22 00:34:48;;;;;;;6.30;3.10;;;;;;;;;;5053928;28;20469;-75
2021/05/22 00:37:15;;;;;;;6.38;3.10;;;;;;;;;;5052557;28;20052;-75
2021/05/22 00:39:41;;;;;;;3.88;2.50;;;;;;;;;;5053409;28;20025;-75
2021/05/22 00:42:07;;;;;;;4.47;2.65;;;;;;;;;;5052340;28;20489;-75
2021/05/22 00:44:34;;;;;;;4.95;2.58;;;;;;;;;;5053187;28;20473;-75
2021/05/22 00:47:00;;;;;;;4.30;2.38;;;;;;;;;;5053761;28;20052;-75
2021/05/22 00:49:27;;;;;;;4.07;2.55;;;;;;;;;;5053750;28;20013;-75
2021/05/22 00:51:53;;;;;;;5.68;2.83;;;;;;;;;;5053193;28;20389;-75
2021/05/22 00:54:20;;;;;;;5.25;2.78;;;;;;;;;;5053436;28;20385;-75
2021/05/22 00:56:47;;;;;;;4.10;2.58;;;;;;;;;;5053295;28;20074;-75
2021/05/22 00:59:18;;;;;;;4.68;2.60;;;;;;;;;;5052951;28;20118;-75
2021/05/22 01:01:44;;;;;;;4.47;2.80;;;;;;;;;;5051713;28;20170;-75
2021/05/22 01:04:11;;;;;;;4.47;2.30;;;;;;;;;;5053270;28;20385;-75
2021/05/22 01:06:37;;;;;;;4.15;2.28;;;;;;;;;;5052883;28;20021;-75
2021/05/22 01:09:16;;;;;;;4.82;2.53;;;;;;;;;;5052056;28;20032;-75
2021/05/22 01:11:43;;;;;;;4.47;2.40;;;;;;;;;;5053137;28;20433;-75
2021/05/22 01:14:09;;;;;;;3.70;2.40;;;;;;;;;;5052661;28;20027;-75
2021/05/22 01:16:36;;;;;;;5.85;3.00;;;;;;;;;;5053035;28;20056;-74
2021/05/22 01:19:02;;;;;;;3.38;2.13;;;;;;;;;;5053028;28;20492;-74
2021/05/22 01:21:29;;;;;;;4.63;2.28;;;;;;;;;;5052409;28;20027;-75
2021/05/22 01:24:03;;;;;;;4.25;2.75;;;;;;;;;;5052928;28;20103;-75
2021/05/22 01:26:29;;;;;;;4.88;2.22;;;;;;;;;;5051522;28;20043;-74
2021/05/22 01:28:57;;;;;;;2.78;1.73;;;;;;;;;;5052681;28;20103;-74
2021/05/22 01:31:24;;;;;;;5.00;2.65;;;;;;;;;;5052912;28;20067;-75
2021/05/22 01:33:50;;;;;;;4.95;2.70;;;;;;;;;;5052404;28;20257;-75
2021/05/22 01:36:16;;;;;;;5.28;2.63;;;;;;;;;;5051305;28;20031;-75
2021/05/22 01:38:42;;;;;;;6.05;3.17;;;;;;;;;;5051367;28;20517;-75
2021/05/22 01:41:09;;;;;;;5.93;3.00;;;;;;;;;;5050942;28;20025;-75
2021/05/22 01:43:38;;;;;;;7.07;3.33;;;;;;;;;;5051211;28;20063;-75
2021/05/22 01:46:04;;;;;;;6.95;3.35;;;;;;;;;;5052708;28;20025;-74
2021/05/22 01:48:30;;;;;;;7.30;3.80;;;;;;;;;;5051123;28;20549;-75
2021/05/22 01:51:07;;;;;;;7.70;3.63;;;;;;;;;;5052468;28;20051;-75
2021/05/22 01:53:34;;;;;;;8.35;3.28;;;;;;;;;;5052519;28;20032;-75
2021/05/22 01:56:01;;;;;;;6.78;4.03;;;;;;;;;;5052043;28;20108;-75
2021/05/22 01:58:27;;;;;;;9.70;3.60;;;;;;;;;;5052532;28;20017;-75
2021/05/22 02:00:54;;;;;;;6.57;3.13;;;;;;;;;;5052561;28;20033;-75
2021/05/22 02:03:27;;;;;;;5.53;2.60;;;;;;;;;;5051901;28;20079;-75
2021/05/22 02:05:54;;;;;;;5.25;2.65;;;;;;;;;;5052490;28;20256;-75
2021/05/22 02:08:21;;;;;;;6.32;2.90;;;;;;;;;;5051283;28;20029;-75
2021/05/22 02:10:48;;;;;;;4.40;2.63;;;;;;;;;;5050744;28;20021;-74
2021/05/22 02:13:14;;;;;;;5.95;3.35;;;;;;;;;;5051035;28;20389;-75
2021/05/22 02:15:41;;;;;;;5.75;3.20;;;;;;;;;;5052393;28;20017;-74
2021/05/22 02:18:10;;;;;;;8.63;3.30;;;;;;;;;;5051861;28;20482;-74
2021/05/22 02:20:37;;;;;;;8.00;3.70;;;;;;;;;;5052258;28;20096;-74
2021/05/22 02:23:04;;;;;;;6.40;3.78;;;;;;;;;;5051836;28;20037;-75
2021/05/22 02:25:30;;;;;;;7.90;4.53;;;;;;;;;;5052234;28;20040;-74
2021/05/22 02:27:58;;;;;;;10.52;4.15;;;;;;;;;;5052401;28;20500;-74
2021/05/22 02:30:24;;;;;;;11.80;4.38;;;;;;;;;;5051956;28;20029;-74
2021/05/22 02:32:51;;;;;;;9.35;4.85;;;;;;;;;;5050836;28;20025;-74
2021/05/22 02:35:18;;;;;;;8.48;4.32;;;;;;;;;;5052127;28;20412;-74
2021/05/22 02:37:45;;;;;;;9.50;3.95;;;;;;;;;;5051701;28;20029;-74
2021/05/22 02:40:16;;;;;;;9.05;4.25;;;;;;;;;;5052180;28;20538;-75
2021/05/22 02:42:48;;;;;;;11.32;5.97;;;;;;;;;;5052045;28;20029;-75
2021/05/22 02:45:14;;;;;;;8.23;3.95;;;;;;;;;;5051678;28;20071;-75
2021/05/22 02:47:43;;;;;;;9.60;4.07;;;;;;;;;;5052466;28;20049;-74
2021/05/22 02:50:10;;;;;;;7.85;3.65;;;;;;;;;;5055806;28;20032;-74
2021/05/22 02:52:38;;;;;;;7.22;3.42;;;;;;;;;;5054125;28;20525;-75
2021/05/22 02:55:05;;;;;;;6.75;3.47;;;;;;;;;;5055765;28;20499;-75
2021/05/22 02:57:32;;;;;;;9.35;3.45;;;;;;;;;;5054406;28;20116;-75
2021/05/22 02:59:59;;;;;;;6.40;3.47;;;;;;;;;;5055203;28;20025;-73
2021/05/22 03:02:26;;;;;;;8.98;4.38;;;;;;;;;;5054047;28;20041;-73
2021/05/22 03:04:52;;;;;;;8.80;4.85;;;;;;;;;;5055553;28;20100;-73
2021/05/22 03:07:19;;;;;;;10.57;4.85;;;;;;;;;;5055287;28;20494;-73
2021/05/22 03:09:48;;;;;;;11.75;5.55;;;;;;;;;;5055681;28;20029;-75
2021/05/22 03:12:25;;;;;;;9.23;5.03;;;;;;;;;;5055111;28;20028;-75
2021/05/22 03:14:51;;;;;;;10.68;5.57;;;;;;;;;;5055247;28;20025;-72
2021/05/22 03:17:18;;;;;;;10.10;6.10;;;;;;;;;;5055336;28;20025;-72
2021/05/22 03:19:44;;;;;;;10.52;4.78;;;;;;;;;;5053640;28;20390;-72
2021/05/22 03:22:10;;;;;;;8.73;4.65;;;;;;;;;;5055201;28;20107;-73
2021/05/22 03:24:36;;;;;;;15.20;5.10;;;;;;;;;;5055109;28;20513;-73
2021/05/22 03:27:02;;;;;;;8.90;4.38;;;;;;;;;;5054759;28;20033;-73
2021/05/22 03:29:29;;;;;;;11.70;4.93;;;;;;;;;;5053984;28;20111;-73
2021/05/22 03:31:55;;;;;;;8.60;4.63;;;;;;;;;;5054964;28;20036;-73
2021/05/22 03:34:21;;;;;;;10.65;4.35;;;;;;;;;;5053342;28;20559;-73
2021/05/22 03:36:47;;;;;;;6.47;4.13;;;;;;;;;;5053705;28;20045;-73
2021/05/22 03:39:13;;;;;;;9.10;4.13;;;;;;;;;;5054882;28;20029;-74
2021/05/22 03:41:40;;;;;;;8.35;4.68;;;;;;;;;;5054336;28;20035;-74
2021/05/22 03:44:06;;;;;;;11.35;5.22;;;;;;;;;;5054791;28;20033;-74
2021/05/22 03:46:32;;;;;;;12.15;5.75;;;;;;;;;;5053482;28;20021;-74
2021/05/22 03:48:58;;;;;;;9.77;4.72;;;;;;;;;;5054601;28;20021;-73
2021/05/22 03:51:24;;;;;;;13.13;5.65;;;;;;;;;;5055027;28;20507;-74
2021/05/22 03:53:51;;;;;;;11.80;5.85;;;;;;;;;;5054669;28;20029;-73
2021/05/22 03:56:17;;;;;;;12.05;5.32;;;;;;;;;;5054064;28;20021;-74
2021/05/22 03:58:43;;;;;;;12.48;5.40;;;;;;;;;;5053332;28;20029;-74
2021/05/22 04:01:09;;;;;;;10.50;4.00;;;;;;;;;;5054262;28;20017;-73
2021/05/22 04:03:36;;;;;;;8.02;4.57;;;;;;;;;;5053978;28;20044;-74
2021/05/22 04:06:02;;;;;;;8.57;4.57;;;;;;;;;;5054462;28;20520;-73
2021/05/22 04:08:28;;;;;;;8.95;4.30;;;;;;;;;;5054327;28;20056;-74
2021/05/22 04:10:54;;;;;;;6.35;3.65;;;;;;;;;;5054606;28;20505;-74
2021/05/22 04:13:20;;;;;;;8.80;4.70;;;;;;;;;;5054315;28;20033;-74
2021/05/22 04:15:47;;;;;;;13.40;4.18;;;;;;;;;;5054128;28;20025;-73
2021/05/22 04:18:13;;;;;;;6.82;3.67;;;;;;;;;;5055560;28;20562;-74
2021/05/22 04:20:39;;;;;;;7.63;3.95;;;;;;;;;;5053296;28;20108;-73
2021/05/22 04:23:05;;;;;;;9.13;3.80;;;;;;;;;;5053514;28;20025;-74
2021/05/22 04:25:32;;;;;;;7.18;3.85;;;;;;;;;;5054069;28;20295;-74
2021/05/22 04:27:58;;;;;;;7.90;4.25;;;;;;;;;;5054060;28;20025;-73
2021/05/22 04:30:24;;;;;;;6.78;3.60;;;;;;;;;;5053763;28;20079;-73
2021/05/22 04:32:50;;;;;;;8.50;4.28;;;;;;;;;;5053842;28;20029;-73
2021/05/22 04:35:17;;;;;;;8.50;4.50;;;;;;;;;;5052533;28;20032;-74
2021/05/22 04:37:43;;;;;;;10.63;5.03;;;;;;;;;;5053460;28;20477;-74
2021/05/22 04:40:10;;;;;;;10.98;4.82;;;;;;;;;;5054032;28;20013;-73
2021/05/22 04:42:36;;;;;;;10.98;4.95;;;;;;;;;;5053628;28;20090;-74
2021/05/22 04:45:02;;;;;;;13.20;4.65;;;;;;;;;;5051914;28;20029;-74
2021/05/22 04:47:28;;;;;;;9.60;5.30;;;;;;;;;;5053717;28;20052;-73
2021/05/22 04:49:56;;;;;;;10.50;4.88;;;;;;;;;;5053933;28;20025;-73
2021/05/22 04:52:22;;;;;;;8.27;4.30;;;;;;;;;;5051861;28;20162;-73
2021/05/22 04:54:49;;;;;;;9.45;5.18;;;;;;;;;;5052234;28;20389;-73
2021/05/22 04:57:16;;;;;;;8.13;5.05;;;;;;;;;;5053465;28;20028;-74
2021/05/22 04:59:42;;;;;;;9.02;5.50;;;;;;;;;;5053003;28;20032;-73
2021/05/22 05:02:08;;;;;;;11.43;4.88;;;;;;;;;;5053100;28;20463;-74
2021/05/22 05:04:34;;;;;;;9.40;4.63;;;;;;;;;;5053145;28;20421;-73
2021/05/22 05:07:03;;;;;;;11.18;4.22;;;;;;;;;;5053563;28;20103;-73
2021/05/22 05:09:29;;;;;;;8.23;4.00;;;;;;;;;;5053505;28;20393;-73
2021/05/22 05:11:55;;;;;;;9.82;4.85;;;;;;;;;;5052256;28;20079;-74
2021/05/22 05:14:21;;;;;;;8.27;4.63;;;;;;;;;;5053126;28;20029;-73
2021/05/22 05:16:47;;;;;;;11.98;4.82;;;;;;;;;;5052175;28;20053;-73
2021/05/22 05:19:14;;;;;;;11.80;4.80;;;;;;;;;;5051350;28;20029;-74
2021/05/22 05:21:40;;;;;;;8.48;4.70;;;;;;;;;;5051606;28;20087;-73
2021/05/22 05:24:06;;;;;;;8.98;4.10;;;;;;;;;;5051703;28;20033;-73
2021/05/22 05:26:32;;;;;;;8.88;5.20;;;;;;;;;;5052474;28;20537;-73
2021/05/22 05:28:59;;;;;;;8.93;4.25;;;;;;;;;;5053227;28;20394;-73
2021/05/22 05:31:25;;;;;;;9.98;4.75;;;;;;;;;;5051795;28;20155;-73
2021/05/22 05:33:51;;;;;;;8.55;4.30;;;;;;;;;;5052505;28;20025;-74
2021/05/22 05:36:17;;;;;;;8.77;4.65;;;;;;;;;;5052824;28;20024;-73
2021/05/22 05:38:43;;;;;;;12.20;5.95;;;;;;;;;;5052736;28;20025;-75
2021/05/22 05:41:09;;;;;;;10.40;4.82;;;;;;;;;;5052437;28;20025;-73
2021/05/22 05:43:36;;;;;;;10.15;4.68;;;;;;;;;;5052622;28;20108;-76
2021/05/22 05:47:56;;;;;;;7.80;4.82;;;;;;;;;;5109978;27;20442;-75
2021/05/22 05:50:23;;;;;;;7.80;4.35;;;;;;;;;;5109383;28;20016;-75
2021/05/22 05:52:49;;;;;;;9.70;4.65;;;;;;;;;;5110536;28;20027;-74
2021/05/22 05:55:16;;;;;;;9.93;4.82;;;;;;;;;;5109949;28;20460;-73
2021/05/22 05:57:42;;;;;;;12.68;5.72;;;;;;;;;;5110216;28;20023;-75
2021/05/22 06:00:09;;;;;;;12.77;5.22;;;;;;;;;;5110238;28;20030;-73
2021/05/22 06:02:35;;;;;;;10.50;5.38;;;;;;;;;;5109710;28;20052;-75
2021/05/22 06:05:01;;;;;;;10.82;4.97;;;;;;;;;;5110540;28;20420;-74
2021/05/22 06:07:27;;;;;;;8.82;4.85;;;;;;;;;;5110165;28;20063;-73
2021/05/22 06:09:53;;;;;;;11.07;5.50;;;;;;;;;;5109804;28;20023;-74
2021/05/22 06:12:20;;;;;;;9.13;4.47;;;;;;;;;;5110642;28;20051;-74
2021/05/22 06:14:53;;;;;;;13.93;5.70;;;;;;;;;;5110070;28;20024;-74
2021/05/22 06:17:19;;;;;;;;;;;;;;;;;;5110555;28;20028;-74
2021/05/22 06:19:45;;;;;;;9.45;3.97;;;;;;;;;;5109952;28;19910;-74
2021/05/22 06:24:38;;;;;;;7.13;3.90;;;;;;;;;;5110559;27;20719;-73
2021/05/22 06:29:04;;;;;;;8.00;4.40;;;;;;;;;;5130751;27;20154;-73
2021/05/22 06:35:51;;;;;;;7.93;3.85;;;;;;;;;;5110499;27;20437;-73
2021/05/22 06:39:17;;;;;;;8.13;4.13;;;;;;;;;;5110411;27;20381;-73
2021/05/22 06:41:43;;;;;;;7.95;4.03;;;;;;;;;;5109281;28;20515;-73
2021/05/22 06:44:16;;;;;;;7.30;4.10;;;;;;;;;;5108697;28;20024;-73
2021/05/22 06:47:21;;;;;;;8.48;4.38;;;;;;;;;;5110748;27;20377;-74
2021/05/22 06:49:47;;;;;;;8.73;4.10;;;;;;;;;;5110613;28;20039;-73
2021/05/22 06:52:14;;;;;;;9.10;4.28;;;;;;;;;;5110035;28;20085;-74
2021/05/22 06:55:35;;;;;;;7.63;4.05;;;;;;;;;;5110367;27;20385;-74
2021/05/22 06:58:01;;;;;;;7.72;4.40;;;;;;;;;;5110154;28;20062;-74
2021/05/22 07:01:44;;;;;;;8.43;4.10;;;;;;;;;;5110538;27;20448;-74
2021/05/22 07:04:10;;;;;;;10.15;4.97;;;;;;;;;;5109952;28;20034;-74
2021/05/22 07:09:47;;;;;;;10.85;4.05;;;;;;;;;;5131027;27;20161;-73
2021/05/22 07:15:18;;;;;;;6.35;3.13;;;;;;;;;;5110220;27;20398;-73
2021/05/22 07:17:46;;;;;;;7.75;3.97;;;;;;;;;;5109092;28;20066;-73
2021/05/22 07:20:13;;;;;;;9.18;3.60;;;;;;;;;;5109740;28;20354;-73
2021/05/22 07:26:13;;;;;;;6.93;3.72;;;;;;;;;;5110162;27;20430;-73
2021/05/22 07:32:08;;;;;;;7.57;3.65;;;;;;;;;;5110576;27;20361;-73
2021/05/22 07:34:35;;;;;;;8.13;3.92;;;;;;;;;;5110131;28;20015;-73
2021/05/22 07:37:01;;;;;;;6.45;3.20;;;;;;;;;;5109190;28;20102;-73
2021/05/22 07:40:24;;;;;;;6.50;2.97;;;;;;;;;;5069674;28;20445;-73
2021/05/22 07:43:50;;;;;;;8.60;3.60;;;;;;;;;;5110484;27;20385;-73
2021/05/22 07:46:16;;;;;;;6.25;3.15;;;;;;;;;;5110424;28;20024;-74
2021/05/22 07:48:42;;;;;;;6.72;3.13;;;;;;;;;;5110164;28;20035;-75
2021/05/22 07:51:39;;;;;;;5.68;2.47;;;;;;;;;;5110680;27;20373;-73
2021/05/22 07:54:06;;;;;;;6.72;3.35;;;;;;;;;;5110092;28;20027;-73
2021/05/22 07:56:32;;;;;;;6.55;3.28;;;;;;;;;;5109087;28;20115;-74
2021/05/22 07:58:58;;;;;;;5.32;2.85;;;;;;;;;;5110287;28;20430;-73
2021/05/22 08:01:24;;;;;;;5.60;3.10;;;;;;;;;;5108574;28;20025;-76
2021/05/22 08:06:26;;;;;;;8.75;4.35;;;;;;;;;;5110395;27;20741;-74
2021/05/22 08:08:52;;;;;;;6.82;3.00;;;;;;;;;;5110348;28;20032;-74
2021/05/22 08:11:18;;;;;;;6.38;3.00;;;;;;;;;;5109083;28;20069;-75
2021/05/22 08:13:44;;;;;;;5.50;2.72;;;;;;;;;;5110476;28;20388;-74
2021/05/22 08:16:11;;;;;;;5.80;2.45;;;;;;;;;;5109880;28;20480;-75
2021/05/22 08:18:37;;;;;;;7.60;2.67;;;;;;;;;;5110150;28;20053;-75
2021/05/22 08:21:04;;;;;;;3.90;2.42;;;;;;;;;;5110311;28;20032;-75
2021/05/22 08:23:30;;;;;;;7.25;3.00;;;;;;;;;;5108441;28;20478;-75
2021/05/22 08:25:57;;;;;;;6.18;2.70;;;;;;;;;;5110060;28;20043;-75
2021/05/22 08:28:26;;;;;;;5.70;2.78;;;;;;;;;;5110261;28;20012;-75
2021/05/22 08:30:53;;;;;;;5.68;2.50;;;;;;;;;;5109770;28;20024;-75
2021/05/22 08:34:55;;;;;;;5.18;2.50;;;;;;;;;;5110384;27;20393;-75
2021/05/22 08:37:21;;;;;;;4.72;2.90;;;;;;;;;;5109932;28;20024;-75
2021/05/22 08:39:48;;;;;;;4.82;2.65;;;;;;;;;;5109017;28;20387;-75
2021/05/22 08:42:22;;;;;;;6.40;3.28;;;;;;;;;;5110446;28;20468;-74
2021/05/22 08:44:49;;;;;;;4.82;2.60;;;;;;;;;;5109879;28;20127;-74
2021/05/22 08:47:15;;;;;;;5.63;2.30;;;;;;;;;;5110340;28;20073;-75
2021/05/22 08:51:39;;;;;;;14.73;2.88;;;;;;;;;;5069599;28;20452;-75
2021/05/22 08:54:21;;;;;;;4.80;2.55;;;;;;;;;;5030196;28;20472;-77
2021/05/22 08:56:47;;;;;;;4.55;2.50;;;;;;;;;;5030069;28;20048;-76
2021/05/22 09:00:39;;;;;;;5.00;2.33;;;;;;;;;;5110615;27;20728;-76
2021/05/22 09:03:39;;;;;;;4.50;2.72;;;;;;;;;;5110632;27;20775;-77
2021/05/22 09:06:05;;;;;;;4.47;2.70;;;;;;;;;;5110357;28;20032;-75
2021/05/22 09:11:07;;;;;;;4.28;2.30;;;;;;;;;;5130619;27;20171;-76
2021/05/22 09:13:34;;;;;;;4.45;2.28;;;;;;;;;;5092152;28;20357;-77
2021/05/22 09:16:04;;;;;;;4.78;2.45;;;;;;;;;;5110473;28;20103;-75
2021/05/22 09:21:56;;;;;;;5.40;3.08;;;;;;;;;;5130920;27;20169;-75
2021/05/22 09:24:22;;;;;;;4.25;2.60;;;;;;;;;;5110599;28;20040;-75
2021/05/22 09:28:05;;;;;;;6.05;2.67;;;;;;;;;;5110539;27;20165;-74
2021/05/22 09:35:55;;;;;;;4.00;1.85;;;;;;;;;;5110322;27;20388;-75
2021/05/22 09:38:33;;;;;;;4.38;1.83;;;;;;;;;;5110501;28;20024;-75
2021/05/22 09:40:59;;;;;;;4.60;2.45;;;;;;;;;;5110067;28;20050;-75
2021/05/22 09:45:26;;;;;;;6.97;2.72;;;;;;;;;;5131107;27;20116;-76
2021/05/22 09:47:52;;;;;;;3.33;1.70;;;;;;;;;;5091984;28;20059;-75
2021/05/22 09:50:28;;;;;;;3.42;1.95;;;;;;;;;;5092111;28;20019;-76
2021/05/22 09:52:55;;;;;;;3.45;2.00;;;;;;;;;;5110429;28;20016;-73
2021/05/22 09:55:22;;;;;;;4.80;1.85;;;;;;;;;;5109886;28;20194;-75
2021/05/22 09:58:55;;;;;;;5.30;2.45;;;;;;;;;;5110529;27;20467;-74
2021/05/22 10:01:25;;;;;;;4.22;1.70;;;;;;;;;;5110158;28;20028;-75
2021/05/22 10:03:51;;;;;;;1.92;1.40;;;;;;;;;;5109280;28;20369;-74
2021/05/22 10:06:17;;;;;;;6.00;1.40;;;;;;;;;;5110733;28;20099;-74
2021/05/22 10:08:44;;;;;;;2.55;1.52;;;;;;;;;;5108821;28;20062;-74
2021/05/22 10:11:10;;;;;;;3.88;1.63;;;;;;;;;;5109091;28;20020;-75
2021/05/22 10:13:37;;;;;;;1.73;1.38;;;;;;;;;;5108984;28;20116;-74
2021/05/22 10:16:05;;;;;;;3.42;1.95;;;;;;;;;;5109615;28;20073;-74
2021/05/22 10:18:32;;;;;;;4.28;1.75;;;;;;;;;;5108677;28;20024;-74
2021/05/22 10:21:00;;;;;;;4.50;1.40;;;;;;;;;;5110004;28;20024;-73
2021/05/22 10:23:27;;;;;;;12.63;2.22;;;;;;;;;;5108334;28;20019;-73
2021/05/22 10:27:31;;;;;;;2.35;1.45;;;;;;;;;;5110558;27;20353;-74
2021/05/22 10:29:57;;;;;;;1.77;1.25;;;;;;;;;;5108813;28;20031;-74
2021/05/22 10:32:26;;;;;;;2.60;1.45;;;;;;;;;;5110642;28;20016;-75
2021/05/22 10:34:53;;;;;;;2.22;1.30;;;;;;;;;;5109137;28;20046;-74
2021/05/22 10:37:40;;;;;;;2.22;1.35;;;;;;;;;;5108634;28;20035;-74
2021/05/22 10:40:07;;;;;;;1.25;1.15;;;;;;;;;;5110230;28;20024;-74
2021/05/22 10:42:55;;;;;;;2.47;1.27;;;;;;;;;;5109878;27;20845;-73
2021/05/22 10:45:26;;;;;;;2.58;1.45;;;;;;;;;;5109279;28;20366;-76
2021/05/22 10:47:54;;;;;;;1.52;1.13;;;;;;;;;;5109114;28;20408;-73
2021/05/22 10:50:32;;;;;;;3.22;1.08;;;;;;;;;;5109931;28;20016;-75
2021/05/22 10:53:17;;;;;;;2.65;1.15;;;;;;;;;;5108951;28;20115;-74
2021/05/22 10:56:14;;;;;;;3.20;1.30;;;;;;;;;;5110358;27;20415;-73
2021/05/22 10:58:59;;;;;;;2.67;1.20;;;;;;;;;;5109969;28;20028;-73
2021/05/22 11:01:35;;;;;;;2.97;1.20;;;;;;;;;;5109020;28;20035;-75
2021/05/22 11:04:10;;;;;;;2.72;1.48;;;;;;;;;;5110117;28;20477;-73
2021/05/22 11:06:43;;;;;;;2.15;1.20;;;;;;;;;;5110397;28;20027;-74
2021/05/22 11:11:53;;;;;;;1.80;1.30;;;;;;;;;;5109740;28;20480;-74
2021/05/22 11:14:36;;;;;;;1.83;1.10;;;;;;;;;;5109963;28;20637;-74
2021/05/22 11:17:21;;;;;;;2.20;1.42;;;;;;;;;;5108750;28;20027;-74
2021/05/22 11:20:09;;;;;;;2.08;1.40;;;;;;;;;;5109685;28;20024;-74
2021/05/22 11:25:51;;;;;;;2.03;1.10;;;;;;;;;;5104769;28;20039;-74
2021/05/22 11:28:21;;;;;;;3.17;1.35;;;;;;;;;;5108611;28;20020;-74
2021/05/22 11:30:51;;;;;;;3.40;1.38;;;;;;;;;;5108805;28;20031;-74
2021/05/22 11:33:23;;;;;;;2.17;1.10;;;;;;;;;;5109322;28;20426;-74
2021/05/22 11:35:51;;;;;;;1.83;1.05;;;;;;;;;;5109598;28;20484;-74
2021/05/22 11:38:17;;;;;;;2.08;1.40;;;;;;;;;;5109515;28;20529;-74
2021/05/22 11:40:44;;;;;;;3.50;1.27;;;;;;;;;;5109119;28;20024;-74
2021/05/22 11:43:22;;;;;;;1.58;1.10;;;;;;;;;;5108488;28;20384;-74
2021/05/22 11:45:53;;;;;;;2.22;1.02;;;;;;;;;;5109288;28;20023;-74
2021/05/22 11:48:45;;;;;;;2.83;1.10;;;;;;;;;;5108335;28;20117;-74
2021/05/22 11:51:17;;;;;;;1.25;0.95;;;;;;;;;;5109459;28;20026;-74
2021/05/22 11:53:47;;;;;;;5.05;1.25;;;;;;;;;;5108740;28;20020;-73
2021/05/22 11:56:15;;;;;;;1.08;0.80;;;;;;;;;;5109372;28;20039;-75
2021/05/22 11:58:49;;;;;;;5.15;1.27;;;;;;;;;;5107893;28;20023;-75
2021/05/22 12:01:17;;;;;;;1.85;1.40;;;;;;;;;;5107817;28;20057;-75
2021/05/22 12:03:44;;;;;;;2.97;1.25;;;;;;;;;;5107857;28;20031;-74
2021/05/22 12:06:21;;;;;;;2.13;1.33;;;;;;;;;;5100996;28;20488;-74
2021/05/22 12:08:57;;;;;;;1.23;0.98;;;;;;;;;;5095198;28;20031;-74
2021/05/22 12:11:27;;;;;;;1.67;1.05;;;;;;;;;;5095513;28;20484;-74
2021/05/22 12:13:58;;;;;;;2.35;1.10;;;;;;;;;;5094980;28;20487;-74
2021/05/22 12:16:24;;;;;;;1.42;1.10;;;;;;;;;;5095256;28;20366;-74
2021/05/22 12:18:52;;;;;;;1.08;0.85;;;;;;;;;;5095331;28;20421;-74
2021/05/22 12:21:36;;;;;;;2.03;0.90;;;;;;;;;;5094811;28;20396;-75
2021/05/22 12:24:08;;;;;;;1.77;1.00;;;;;;;;;;5095393;28;20039;-74
2021/05/22 12:26:35;;;;;;;2.30;1.17;;;;;;;;;;5095381;28;20097;-75
2021/05/22 12:29:01;;;;;;;2.42;1.00;;;;;;;;;;5094641;28;20078;-74
2021/05/22 12:31:28;;;;;;;2.47;0.95;;;;;;;;;;5095002;28;20024;-76
2021/05/22 12:34:01;;;;;;;4.05;1.27;;;;;;;;;;5095144;28;20028;-75
2021/05/22 12:36:28;;;;;;;2.80;1.50;;;;;;;;;;5094753;28;20388;-75
2021/05/22 12:38:54;;;;;;;6.00;1.40;;;;;;;;;;5094899;28;20093;-75
2021/05/22 12:41:34;;;;;;;1.98;0.90;;;;;;;;;;5095026;28;20032;-75
2021/05/22 12:44:00;;;;;;;2.50;1.10;;;;;;;;;;5094374;28;20551;-75
2021/05/22 12:46:26;;;;;;;2.17;0.90;;;;;;;;;;5094959;28;20176;-75
2021/05/22 12:48:53;;;;;;;2.47;1.00;;;;;;;;;;5094696;28;20051;-74
2021/05/22 12:51:23;;;;;;;1.63;0.90;;;;;;;;;;5094246;28;20016;-76
2021/05/22 12:53:49;;;;;;;1.88;1.00;;;;;;;;;;5094356;28;20020;-75
2021/05/22 12:56:17;;;;;;;2.58;0.93;;;;;;;;;;5092914;28;20036;-75
2021/05/22 12:58:46;;;;;;;1.67;0.98;;;;;;;;;;5094451;28;20043;-75
2021/05/22 13:01:17;;;;;;;2.42;0.90;;;;;;;;;;5093149;28;20024;-74
2021/05/22 13:03:45;;;;;;;1.52;1.10;;;;;;;;;;5094043;28;20020;-74
2021/05/22 13:06:14;;;;;;;2.63;0.93;;;;;;;;;;5094735;28;20502;-75
2021/05/22 13:08:40;;;;;;;3.53;1.13;;;;;;;;;;5094428;28;20099;-75
2021/05/22 13:11:15;;;;;;;2.25;1.10;;;;;;;;;;5093833;28;20435;-75
2021/05/22 13:13:41;;;;;;;3.00;1.10;;;;;;;;;;5094171;28;20019;-74
2021/05/22 13:16:12;;;;;;;2.10;1.10;;;;;;;;;;5094236;28;20107;-74
2021/05/22 13:18:39;;;;;;;2.40;0.98;;;;;;;;;;5092893;28;20073;-74
2021/05/22 13:21:07;;;;;;;1.55;0.90;;;;;;;;;;5094123;28;20107;-74
2021/05/22 13:23:35;;;;;;;6.82;1.00;;;;;;;;;;5094156;28;20516;-74
2021/05/22 13:26:01;;;;;;;2.30;1.15;;;;;;;;;;5093743;28;20077;-74
2021/05/22 13:28:29;;;;;;;1.17;0.68;;;;;;;;;;5094006;28;20024;-74
2021/05/22 13:31:11;;;;;;;2.55;0.80;;;;;;;;;;5094206;28;20095;-75
2021/05/22 13:33:38;;;;;;;2.42;0.73;;;;;;;;;;5093755;28;20023;-74
2021/05/22 13:36:05;;;;;;;1.95;0.80;;;;;;;;;;5093836;28;20496;-74
2021/05/22 13:38:31;;;;;;;1.08;0.82;;;;;;;;;;5093419;28;20133;-74
2021/05/22 13:40:57;;;;;;;6.03;0.90;;;;;;;;;;5093665;28;20031;-74
2021/05/22 13:43:24;;;;;;;1.83;1.05;;;;;;;;;;5093731;28;20024;-74
2021/05/22 13:45:50;;;;;;;2.60;0.98;;;;;;;;;;5092159;28;20593;-73
2021/05/22 13:48:16;;;;;;;3.33;1.15;;;;;;;;;;5092533;28;20510;-75
2021/05/22 13:50:43;;;;;;;1.92;0.80;;;;;;;;;;5093418;28;20031;-75
2021/05/22 13:53:09;;;;;;;1.27;0.90;;;;;;;;;;5093056;28;20027;-76
2021/05/22 13:55:36;;;;;;;1.48;0.82;;;;;;;;;;5093125;28;20093;-76
2021/05/22 13:58:02;;;;;;;5.93;1.08;;;;;;;;;;5093367;28;20126;-76
2021/05/22 14:00:28;;;;;;;1.50;0.80;;;;;;;;;;5093061;28;20507;-76
2021/05/22 14:02:54;;;;;;;1.30;0.73;;;;;;;;;;5093349;28;20051;-75
2021/05/22 14:05:21;;;;;;;4.43;1.00;;;;;;;;;;5092185;28;20484;-76
2021/05/22 14:07:47;;;;;;;1.02;0.80;;;;;;;;;;5093061;28;20020;-75
2021/05/22 14:10:14;;;;;;;3.05;0.80;;;;;;;;;;5093259;28;20028;-76
2021/05/22 14:12:40;;;;;;;1.02;0.85;;;;;;;;;;5093285;28;20501;-75
2021/05/22 14:15:08;;;;;;;1.77;0.75;;;;;;;;;;5093000;28;20664;-76
2021/05/22 14:17:36;;;;;;;4.45;1.02;;;;;;;;;;5093910;28;20023;-74
2021/05/22 14:20:03;;;;;;;1.98;0.93;;;;;;;;;;5094398;28;20133;-74
2021/05/22 14:22:29;;;;;;;2.53;1.00;;;;;;;;;;5092686;28;20099;-75
2021/05/22 14:24:55;;;;;;;2.97;0.80;;;;;;;;;;5093010;28;20500;-74
2021/05/22 14:27:21;;;;;;;3.40;1.52;;;;;;;;;;5093060;28;20035;-75
2021/05/22 14:29:48;;;;;;;2.55;0.90;;;;;;;;;;5092594;28;20099;-74
2021/05/22 14:32:14;;;;;;;1.90;0.70;;;;;;;;;;5092700;28;20043;-74
2021/05/22 14:34:40;;;;;;;2.38;1.10;;;;;;;;;;5092200;28;20039;-75
2021/05/22 14:37:06;;;;;;;4.57;0.98;;;;;;;;;;5092337;28;20044;-74
2021/05/22 14:39:32;;;;;;;1.63;1.23;;;;;;;;;;5091360;28;20044;-75
2021/05/22 14:41:58;;;;;;;1.55;0.75;;;;;;;;;;5091220;28;20034;-75
2021/05/22 14:44:25;;;;;;;3.83;0.77;;;;;;;;;;5091139;28;20418;-76
2021/05/22 14:46:51;;;;;;;1.05;0.80;;;;;;;;;;5092721;28;20103;-75
2021/05/22 14:49:17;;;;;;;2.60;0.93;;;;;;;;;;5092272;28;20016;-75
2021/05/22 14:51:43;;;;;;;4.35;1.15;;;;;;;;;;5092578;28;20027;-74
2021/05/22 14:54:09;;;;;;;2.47;0.80;;;;;;;;;;5092263;28;20079;-75
2021/05/22 14:56:36;;;;;;;5.18;0.77;;;;;;;;;;5092119;28;20024;-75
2021/05/22 14:59:02;;;;;;;1.55;1.10;;;;;;;;;;5092716;28;20044;-75
2021/05/22 15:01:28;;;;;;;2.92;0.95;;;;;;;;;;5092449;28;20032;-75
2021/05/22 15:03:54;;;;;;;0.95;0.55;;;;;;;;;;5092210;28;20028;-75
2021/05/22 15:06:21;;;;;;;2.33;1.10;;;;;;;;;;5092580;28;20077;-75
2021/05/22 15:08:47;;;;;;;3.55;1.00;;;;;;;;;;5092597;28;20017;-75
2021/05/22 15:11:13;;;;;;;3.42;0.70;;;;;;;;;;5090918;28;20464;-76
2021/05/22 15:13:41;;;;;;;2.67;0.82;;;;;;;;;;5091115;28;20028;-75
2021/05/22 15:16:07;;;;;;;1.92;0.70;;;;;;;;;;5092482;28;20027;-75
2021/05/22 15:18:33;;;;;;;2.65;0.57;;;;;;;;;;5092353;28;20392;-75
2021/05/22 15:21:00;;;;;;;2.13;0.60;;;;;;;;;;5092306;28;20027;-75
2021/05/22 15:23:26;;;;;;;1.60;0.70;;;;;;;;;;5092251;28;20024;-75
2021/05/22 15:25:52;;;;;;;2.92;1.10;;;;;;;;;;5090691;28;20024;-75
2021/05/22 15:28:18;;;;;;;1.65;0.85;;;;;;;;;;5092828;28;20440;-75
2021/05/22 15:30:44;;;;;;;3.25;0.70;;;;;;;;;;5092158;28;20049;-73
2021/05/22 15:33:10;;;;;;;2.75;0.65;;;;;;;;;;5092366;28;20099;-74
2021/05/22 15:35:37;;;;;;;1.80;0.98;;;;;;;;;;5092202;28;20495;-75
2021/05/22 15:38:03;;;;;;;3.92;0.90;;;;;;;;;;5091974;28;20024;-75
2021/05/22 15:40:30;;;;;;;2.08;0.60;;;;;;;;;;5090972;28;20052;-75
2021/05/22 15:42:59;;;;;;;1.45;0.90;;;;;;;;;;5094785;28;20081;-75
2021/05/22 15:45:27;;;;;;;1.45;0.80;;;;;;;;;;5095841;28;20028;-75